createdAt,value
2022-08-03T00:01:36.146Z,20.30
2022-08-03T00:04:03.424Z,20.28
2022-08-03T00:06:33.770Z,20.20
2022-08-03T00:09:08.104Z,20.18
2022-08-03T00:11:35.197Z,20.16
2022-08-03T00:14:02.060Z,20.11
2022-08-03T00:16:28.758Z,20.08
2022-08-03T00:18:55.595Z,20.05
2022-08-03T00:21:22.269Z,20.02
2022-08-03T00:23:52.388Z,19.99
2022-08-03T00:26:23.421Z,19.95
2022-08-03T00:28:50.598Z,19.89
2022-08-03T00:31:20.398Z,19.88
2022-08-03T00:34:04.580Z,19.84
2022-08-03T00:36:32.690Z,19.81
2022-08-03T00:38:59.345Z,19.76
2022-08-03T00:41:26.013Z,19.74
2022-08-03T00:43:52.710Z,19.68
2022-08-03T00:46:21.869Z,19.67
2022-08-03T00:48:53.652Z,19.63
2022-08-03T00:51:22.268Z,19.58
2022-08-03T00:53:50.327Z,19.56
2022-08-03T00:56:17.735Z,19.52
2022-08-03T00:58:46.299Z,19.51
2022-08-03T01:01:13.439Z,19.45
2022-08-03T01:03:40.857Z,19.42
2022-08-03T01:06:18.813Z,19.39
2022-08-03T01:09:13.195Z,19.35
2022-08-03T01:12:04.070Z,19.32
2022-08-03T01:14:58.644Z,19.26
2022-08-03T01:18:05.342Z,19.24
2022-08-03T01:20:34.729Z,19.19
2022-08-03T01:23:29.217Z,19.16
2022-08-03T01:26:03.802Z,19.13
2022-08-03T01:28:46.699Z,19.10
2022-08-03T01:31:18.996Z,19.06
2022-08-03T01:33:52.855Z,19.03
2022-08-03T01:36:26.456Z,19.00
2022-08-03T01:39:01.646Z,18.95
2022-08-03T01:41:35.387Z,18.94
2022-08-03T01:44:29.112Z,18.93
2022-08-03T01:46:53.440Z,18.88
2022-08-03T01:49:21.423Z,18.86
2022-08-03T01:52:03.464Z,18.83
2022-08-03T01:54:34.969Z,18.74
2022-08-03T01:57:03.162Z,18.74
2022-08-03T01:59:32.586Z,18.70
2022-08-03T02:02:25.184Z,18.67
2022-08-03T02:04:48.503Z,18.65
2022-08-03T02:07:16.543Z,18.65
2022-08-03T02:09:46.870Z,18.63
2022-08-03T02:12:15.277Z,18.58
2022-08-03T02:14:44.619Z,18.58
2022-08-03T02:17:13.160Z,18.56
2022-08-03T02:19:42.034Z,18.54
2022-08-03T02:22:11.151Z,18.47
2022-08-03T02:24:38.409Z,18.47
2022-08-03T02:27:19.395Z,18.42
2022-08-03T02:29:52.076Z,18.42
2022-08-03T02:32:24.368Z,18.38
2022-08-03T02:34:53.796Z,18.34
2022-08-03T02:37:23.080Z,18.33
2022-08-03T02:39:53.402Z,18.31
2022-08-03T02:42:23.406Z,18.30
2022-08-03T02:44:51.218Z,18.27
2022-08-03T02:47:21.094Z,18.26
2022-08-03T02:49:52.161Z,18.18
2022-08-03T02:52:23.431Z,18.15
2022-08-03T02:54:53.608Z,18.13
2022-08-03T02:57:22.038Z,18.09
2022-08-03T02:59:50.337Z,18.03
2022-08-03T03:02:18.292Z,18.04
2022-08-03T03:05:01.316Z,18.05
2022-08-03T03:07:41.719Z,17.99
2022-08-03T03:10:21.689Z,17.99
2022-08-03T03:12:55.260Z,17.97
2022-08-03T03:15:22.467Z,17.93
2022-08-03T03:17:51.639Z,17.89
2022-08-03T03:20:29.046Z,17.89
2022-08-03T03:22:57.970Z,17.82
2022-08-03T03:25:24.973Z,17.78
2022-08-03T03:27:51.814Z,17.75
2022-08-03T03:30:18.805Z,17.75
2022-08-03T03:32:45.589Z,17.73
2022-08-03T03:35:14.047Z,17.72
2022-08-03T03:37:40.823Z,17.72
2022-08-03T03:40:09.161Z,17.70
2022-08-03T03:42:36.130Z,17.68
2022-08-03T03:45:07.547Z,17.66
2022-08-03T03:47:35.771Z,17.64
2022-08-03T03:50:04.965Z,17.61
2022-08-03T03:52:32.504Z,17.59
2022-08-03T03:55:01.309Z,17.58
2022-08-03T03:57:29.389Z,17.57
2022-08-03T03:59:56.186Z,17.57
2022-08-03T04:02:22.928Z,17.52
2022-08-03T04:05:08.160Z,17.49
2022-08-03T04:08:08.275Z,17.46
2022-08-03T04:10:54.667Z,17.44
2022-08-03T04:13:22.249Z,17.40
2022-08-03T04:15:50.623Z,17.41
2022-08-03T04:18:18.262Z,17.35
2022-08-03T04:20:48.865Z,17.35
2022-08-03T04:23:18.799Z,17.32
2022-08-03T04:25:48.999Z,17.33
2022-08-03T04:28:31.262Z,17.31
2022-08-03T04:31:01.072Z,17.34
2022-08-03T04:33:32.356Z,17.32
2022-08-03T04:36:03.154Z,17.34
2022-08-03T04:38:40.493Z,17.30
2022-08-03T04:41:08.959Z,17.31
2022-08-03T04:43:36.652Z,17.32
2022-08-03T04:46:04.592Z,17.33
2022-08-03T04:48:31.510Z,17.32
2022-08-03T04:50:58.287Z,17.32
2022-08-03T04:53:24.955Z,17.34
2022-08-03T04:55:51.608Z,17.32
2022-08-03T04:58:18.252Z,17.32
2022-08-03T05:00:45.727Z,17.33
2022-08-03T05:03:19.546Z,17.33
2022-08-03T05:05:52.581Z,17.33
2022-08-03T05:08:20.561Z,17.32
2022-08-03T05:10:54.600Z,17.34
2022-08-03T05:13:21.237Z,17.35
2022-08-03T05:15:47.998Z,17.29
2022-08-03T05:18:14.613Z,17.34
2022-08-03T05:20:41.533Z,17.44
2022-08-03T05:23:08.288Z,17.42
2022-08-03T05:25:35.026Z,17.39
2022-08-03T05:28:01.673Z,17.41
2022-08-03T05:30:33.191Z,17.43
2022-08-03T05:33:01.518Z,17.44
2022-08-03T05:36:00.591Z,17.46
2022-08-03T05:38:28.215Z,17.46
2022-08-03T05:41:20.298Z,17.45
2022-08-03T05:43:43.623Z,17.49
2022-08-03T05:46:12.986Z,17.51
2022-08-03T05:48:40.500Z,17.52
2022-08-03T05:51:11.446Z,17.53
2022-08-03T05:53:42.388Z,17.58
2022-08-03T05:56:14.277Z,17.59
2022-08-03T05:58:47.326Z,17.63
2022-08-03T06:01:15.863Z,17.64
2022-08-03T06:03:42.796Z,17.66
2022-08-03T06:06:09.757Z,17.69
2022-08-03T06:08:36.597Z,17.72
2022-08-03T06:11:04.840Z,17.75
2022-08-03T06:13:32.326Z,17.80
2022-08-03T06:15:58.986Z,17.82
2022-08-03T06:18:25.661Z,17.85
2022-08-03T06:20:53.331Z,17.89
2022-08-03T06:23:20.067Z,17.91
2022-08-03T06:25:49.847Z,17.94
2022-08-03T06:28:51.224Z,17.98
2022-08-03T06:31:06.436Z,17.99
2022-08-03T06:34:31.051Z,18.03
2022-08-03T06:36:20.576Z,18.06
2022-08-03T06:38:47.677Z,18.08
2022-08-03T06:41:14.736Z,18.12
2022-08-03T06:44:03.883Z,18.16
2022-08-03T06:46:31.567Z,18.19
2022-08-03T06:48:58.643Z,18.37
2022-08-03T06:52:03.688Z,18.60
2022-08-03T06:54:13.275Z,18.47
2022-08-03T06:56:39.865Z,18.64
2022-08-03T06:59:06.479Z,18.94
2022-08-03T07:01:33.222Z,18.77
2022-08-03T07:04:00.648Z,18.86
2022-08-03T07:06:27.453Z,18.95
2022-08-03T07:08:58.935Z,18.97
2022-08-03T07:11:26.466Z,19.04
2022-08-03T07:13:53.072Z,19.03
2022-08-03T07:16:20.287Z,19.11
2022-08-03T07:18:49.986Z,19.29
2022-08-03T07:21:17.118Z,19.27
2022-08-03T07:23:43.747Z,19.36
2022-08-03T07:26:10.399Z,19.28
2022-08-03T07:28:37.754Z,19.24
2022-08-03T07:31:04.348Z,19.26
2022-08-03T07:33:31.012Z,19.33
2022-08-03T07:35:57.669Z,19.42
2022-08-03T07:38:24.306Z,19.54
2022-08-03T07:40:50.910Z,19.54
2022-08-03T07:43:17.709Z,19.54
2022-08-03T07:45:44.341Z,19.66
2022-08-03T07:48:12.597Z,19.74
2022-08-03T07:50:39.632Z,19.75
2022-08-03T07:53:06.234Z,19.77
2022-08-03T07:55:33.100Z,20.00
2022-08-03T07:58:12.546Z,20.09
2022-08-03T08:00:39.552Z,20.01
2022-08-03T08:03:06.503Z,20.17
2022-08-03T08:05:33.930Z,20.20
2022-08-03T08:08:01.477Z,20.24
2022-08-03T08:10:28.372Z,20.33
2022-08-03T08:12:55.640Z,20.43
2022-08-03T08:15:22.424Z,20.48
2022-08-03T08:17:57.727Z,20.54
2022-08-03T08:20:31.630Z,20.63
2022-08-03T08:23:03.711Z,20.63
2022-08-03T08:25:43.213Z,20.73
2022-08-03T08:28:31.106Z,20.80
2022-08-03T08:30:56.555Z,20.89
2022-08-03T08:33:24.053Z,20.96
2022-08-03T08:35:53.232Z,21.09
2022-08-03T08:38:19.926Z,21.11
2022-08-03T08:40:46.660Z,21.19
2022-08-03T08:43:13.311Z,21.24
2022-08-03T08:45:41.670Z,21.28
2022-08-03T08:48:10.749Z,21.38
2022-08-03T08:50:39.243Z,21.49
2022-08-03T08:53:09.895Z,21.47
2022-08-03T08:55:59.796Z,21.55
2022-08-03T08:58:30.541Z,21.59
2022-08-03T09:00:57.379Z,21.81
2022-08-03T09:03:30.145Z,21.80
2022-08-03T09:05:59.452Z,21.87
2022-08-03T09:08:26.325Z,21.99
2022-08-03T09:10:53.012Z,22.01
2022-08-03T09:13:19.703Z,22.03
2022-08-03T09:16:00.907Z,22.08
2022-08-03T09:18:32.441Z,22.26
2022-08-03T09:21:34.591Z,22.26
2022-08-03T09:24:06.104Z,22.29
2022-08-03T09:26:37.100Z,22.37
2022-08-03T09:29:09.361Z,22.48
2022-08-03T09:31:48.804Z,22.58
2022-08-03T09:34:17.450Z,22.74
2022-08-03T09:36:49.067Z,22.80
2022-08-03T09:39:37.468Z,22.88
2022-08-03T09:42:14.743Z,22.94
2022-08-03T09:44:44.240Z,22.98
2022-08-03T09:47:12.214Z,23.07
2022-08-03T09:49:41.626Z,23.14
2022-08-03T09:52:38.649Z,23.16
2022-08-03T09:55:23.655Z,23.30
2022-08-03T09:58:09.212Z,23.33
2022-08-03T10:01:03.787Z,23.38
2022-08-03T10:03:32.575Z,23.39
2022-08-03T10:06:00.113Z,23.51
2022-08-03T10:08:27.040Z,23.60
2022-08-03T10:10:58.742Z,23.55
2022-08-03T10:13:25.649Z,23.67
2022-08-03T10:16:22.392Z,23.65
2022-08-03T10:18:39.100Z,23.71
2022-08-03T10:21:10.751Z,23.76
2022-08-03T10:23:39.972Z,23.87
2022-08-03T10:26:08.259Z,24.06
2022-08-03T10:28:44.729Z,24.06
2022-08-03T10:31:14.149Z,24.08
2022-08-03T10:33:51.279Z,24.11
2022-08-03T10:36:23.395Z,24.10
2022-08-03T10:38:56.619Z,24.17
2022-08-03T10:41:27.236Z,24.32
2022-08-03T10:43:59.525Z,24.37
2022-08-03T10:46:27.542Z,24.44
2022-08-03T10:48:56.608Z,24.58
2022-08-03T10:51:24.314Z,24.58
2022-08-03T10:53:55.047Z,24.72
2022-08-03T10:56:52.662Z,24.81
2022-08-03T10:59:46.391Z,24.77
2022-08-03T11:02:16.303Z,24.80
2022-08-03T11:04:45.039Z,24.90
2022-08-03T11:07:19.421Z,24.97
2022-08-03T11:09:48.663Z,25.03
2022-08-03T11:12:32.910Z,25.08
2022-08-03T11:15:06.233Z,25.14
2022-08-03T11:17:46.311Z,25.16
2022-08-03T11:20:47.096Z,25.23
2022-08-03T11:23:15.724Z,25.33
2022-08-03T11:26:10.789Z,25.36
2022-08-03T11:28:41.113Z,25.47
2022-08-03T11:31:49.339Z,25.67
2022-08-03T11:34:17.623Z,25.58
2022-08-03T11:37:19.876Z,25.63
2022-08-03T11:39:48.025Z,25.75
2022-08-03T11:42:27.143Z,25.85
2022-08-03T11:44:56.112Z,25.92
2022-08-03T11:47:25.675Z,26.00
2022-08-03T11:49:55.930Z,26.10
2022-08-03T11:52:27.102Z,26.09
2022-08-03T11:54:56.961Z,26.20
2022-08-03T11:59:01.932Z,26.35
2022-08-03T12:00:28.930Z,26.38
2022-08-03T12:03:02.407Z,26.34
2022-08-03T12:05:42.522Z,26.53
2022-08-03T12:08:27.839Z,26.60
2022-08-03T12:10:56.233Z,26.69
2022-08-03T12:14:27.077Z,26.87
2022-08-03T12:16:56.892Z,26.71
2022-08-03T12:19:23.669Z,26.83
2022-08-03T12:21:56.800Z,26.87
2022-08-03T12:24:24.297Z,26.98
2022-08-03T12:26:58.433Z,27.12
2022-08-03T12:29:26.806Z,27.17
2022-08-03T12:31:53.610Z,27.18
2022-08-03T12:34:20.368Z,27.21
2022-08-03T12:36:56.302Z,27.23
2022-08-03T12:39:24.610Z,27.28
2022-08-03T12:45:37.676Z,27.55
2022-08-03T12:48:09.228Z,27.55
2022-08-03T12:50:37.315Z,27.72
2022-08-03T12:53:08.022Z,27.75
2022-08-03T12:55:40.114Z,27.82
2022-08-03T12:58:34.164Z,27.95
2022-08-03T13:01:05.161Z,27.95
2022-08-03T13:07:23.477Z,28.09
2022-08-03T13:09:55.336Z,28.29
2022-08-03T13:13:22.404Z,28.29
2022-08-03T13:15:49.239Z,28.36
2022-08-03T13:18:17.487Z,28.45
2022-08-03T13:20:44.429Z,28.64
2022-08-03T13:23:22.005Z,28.75
2022-08-03T13:25:55.221Z,28.72
2022-08-03T13:28:23.505Z,28.85
2022-08-03T13:30:50.354Z,28.86
2022-08-03T13:33:17.453Z,28.97
2022-08-03T13:35:44.178Z,29.07
2022-08-03T13:38:10.993Z,29.15
2022-08-03T13:40:38.475Z,29.12
2022-08-03T13:43:08.908Z,29.29
2022-08-03T13:45:35.789Z,29.38
2022-08-03T13:48:02.538Z,29.31
2022-08-03T13:50:30.294Z,29.43
2022-08-03T13:52:57.975Z,29.55
2022-08-03T13:55:24.832Z,29.57
2022-08-03T13:58:04.606Z,29.65
2022-08-03T14:00:34.411Z,29.68
2022-08-03T14:03:08.006Z,29.68
2022-08-03T14:05:39.376Z,29.80
2022-08-03T14:08:07.127Z,29.88
2022-08-03T14:10:35.910Z,30.03
2022-08-03T14:13:03.637Z,29.99
2022-08-03T14:15:30.712Z,30.02
2022-08-03T14:17:58.380Z,30.06
2022-08-03T14:20:37.813Z,30.21
2022-08-03T14:23:07.007Z,30.27
2022-08-03T14:25:50.099Z,30.34
2022-08-03T14:28:20.861Z,30.47
2022-08-03T14:30:48.736Z,30.53
2022-08-03T14:33:15.825Z,30.60
2022-08-03T14:35:42.831Z,30.78
2022-08-03T14:38:09.531Z,30.85
2022-08-03T14:40:36.250Z,30.83
2022-08-03T14:43:03.211Z,31.03
2022-08-03T14:45:29.944Z,31.07
2022-08-03T14:50:29.466Z,31.10
2022-08-03T14:50:50.201Z,31.15
2022-08-03T14:53:18.379Z,31.35
2022-08-03T14:55:50.557Z,31.39
2022-08-03T14:58:22.748Z,31.34
2022-08-03T15:00:54.283Z,31.42
2022-08-03T15:03:24.855Z,31.61
2022-08-03T15:05:57.773Z,31.52
2022-08-03T15:08:25.849Z,31.85
2022-08-03T15:10:54.092Z,31.96
2022-08-03T15:13:21.134Z,31.97
2022-08-03T15:15:48.366Z,32.04
2022-08-03T15:18:15.328Z,32.05
2022-08-03T15:20:45.468Z,32.18
2022-08-03T15:23:14.834Z,32.10
2022-08-03T15:26:32.315Z,32.21
2022-08-03T15:28:30.363Z,32.54
2022-08-03T15:30:57.397Z,32.28
2022-08-03T15:33:24.125Z,32.45
2022-08-03T15:35:50.841Z,32.44
2022-08-03T15:38:17.792Z,32.63
2022-08-03T15:40:44.970Z,32.68
2022-08-03T15:43:11.858Z,32.64
2022-08-03T15:45:38.679Z,32.64
2022-08-03T15:48:06.946Z,32.64
2022-08-03T15:50:35.223Z,32.72
2022-08-03T15:53:02.020Z,32.80
2022-08-03T15:55:28.803Z,32.94
2022-08-03T15:59:04.358Z,33.00
2022-08-03T16:00:43.224Z,32.48
2022-08-03T16:03:10.768Z,32.78
2022-08-03T16:05:37.555Z,32.92
2022-08-03T16:08:06.309Z,32.91
2022-08-03T16:10:35.879Z,33.05
2022-08-03T16:13:02.641Z,33.06
2022-08-03T16:15:29.395Z,33.11
2022-08-03T16:17:56.314Z,32.85
2022-08-03T16:20:33.937Z,32.96
2022-08-03T16:23:10.530Z,33.05
2022-08-03T16:25:42.770Z,33.04
2022-08-03T16:28:14.259Z,32.68
2022-08-03T16:30:43.886Z,33.06
2022-08-03T16:33:16.742Z,32.78
2022-08-03T16:35:44.725Z,33.19
2022-08-03T16:38:14.188Z,33.23
2022-08-03T16:40:45.913Z,33.23
2022-08-03T16:43:18.108Z,33.23
2022-08-03T16:45:46.635Z,33.17
2022-08-03T16:48:14.014Z,32.92
2022-08-03T16:50:40.782Z,32.91
2022-08-03T16:53:09.593Z,32.91
2022-08-03T16:55:43.394Z,32.89
2022-08-03T16:58:19.630Z,32.74
2022-08-03T17:01:06.388Z,32.54
2022-08-03T17:04:01.663Z,32.72
2022-08-03T17:06:35.029Z,32.65
2022-08-03T17:09:13.950Z,32.46
2022-08-03T17:11:46.549Z,32.52
2022-08-03T17:14:14.931Z,32.59
2022-08-03T17:16:52.517Z,32.77
2022-08-03T17:19:23.209Z,32.73
2022-08-03T17:21:58.318Z,32.63
2022-08-03T17:24:32.201Z,32.57
2022-08-03T17:27:04.384Z,32.51
2022-08-03T17:29:39.365Z,32.46
2022-08-03T17:32:17.871Z,32.43
2022-08-03T17:34:47.351Z,32.37
2022-08-03T17:37:27.127Z,32.32
2022-08-03T17:40:05.182Z,32.27
2022-08-03T17:42:33.238Z,32.21
2022-08-03T17:45:03.570Z,32.11
2022-08-03T17:47:41.424Z,32.08
2022-08-03T17:50:24.539Z,32.04
2022-08-03T17:53:06.815Z,31.96
2022-08-03T17:55:56.674Z,31.90
2022-08-03T17:58:43.679Z,31.82
2022-08-03T18:02:06.028Z,31.76
2022-08-03T18:04:29.648Z,31.64
2022-08-03T18:06:59.522Z,31.57
2022-08-03T18:10:04.495Z,31.48
2022-08-03T18:12:27.150Z,31.38
2022-08-03T18:15:01.146Z,31.29
2022-08-03T18:17:55.787Z,31.22
2022-08-03T18:20:34.417Z,31.09
2022-08-03T18:23:08.928Z,30.96
2022-08-03T18:25:45.695Z,30.88
2022-08-03T18:28:19.225Z,30.68
2022-08-03T18:30:54.470Z,30.62
2022-08-03T18:34:17.323Z,30.49
2022-08-03T18:36:18.082Z,30.35
2022-08-03T18:38:47.576Z,30.28
2022-08-03T18:41:22.156Z,30.17
2022-08-03T18:44:08.693Z,30.03
2022-08-03T18:46:55.369Z,29.94
2022-08-03T18:49:56.719Z,29.81
2022-08-03T18:52:53.035Z,29.73
2022-08-03T18:55:38.182Z,29.61
2022-08-03T18:58:52.371Z,29.49
2022-08-03T19:01:58.091Z,29.39
2022-08-03T19:04:41.181Z,29.28
2022-08-03T19:07:36.024Z,29.16
2022-08-03T19:10:05.593Z,29.05
2022-08-03T19:12:41.790Z,28.95
2022-08-03T19:15:15.776Z,28.84
2022-08-03T19:17:53.185Z,28.69
2022-08-03T19:20:24.964Z,28.53
2022-08-03T19:22:54.038Z,28.45
2022-08-03T19:25:34.715Z,28.33
2022-08-03T19:28:05.862Z,28.24
2022-08-03T19:30:53.752Z,28.14
2022-08-03T19:33:21.055Z,28.02
2022-08-03T19:35:55.104Z,27.95
2022-08-03T19:38:27.403Z,27.85
2022-08-03T19:40:58.201Z,27.75
2022-08-03T19:43:49.417Z,27.69
2022-08-03T19:46:21.750Z,27.58
2022-08-03T19:49:16.212Z,27.50
2022-08-03T19:52:00.685Z,27.40
2022-08-03T19:54:39.665Z,27.26
2022-08-03T19:57:27.366Z,27.15
2022-08-03T19:59:55.632Z,26.99
2022-08-03T20:02:27.967Z,26.93
2022-08-03T20:04:57.610Z,26.87
2022-08-03T20:07:28.463Z,26.75
2022-08-03T20:09:56.621Z,26.72
2022-08-03T20:12:27.755Z,26.62
2022-08-03T20:14:57.544Z,26.53
2022-08-03T20:17:55.115Z,26.39
2022-08-03T20:20:11.336Z,26.36
2022-08-03T20:22:43.110Z,26.23
2022-08-03T20:25:20.740Z,26.16
2022-08-03T20:28:07.344Z,26.11
2022-08-03T20:30:44.491Z,26.02
2022-08-03T20:33:18.253Z,25.92
2022-08-03T20:35:45.789Z,25.83
2022-08-03T20:38:15.763Z,25.77
2022-08-03T20:40:42.564Z,25.73
2022-08-03T20:43:09.451Z,25.63
2022-08-03T20:45:59.800Z,25.58
2022-08-03T20:48:27.054Z,25.43
2022-08-03T20:50:55.633Z,25.37
2022-08-03T20:53:57.422Z,25.31
2022-08-03T20:56:10.087Z,25.23
2022-08-03T20:58:37.061Z,25.19
2022-08-03T21:01:08.294Z,25.12
2022-08-03T21:03:41.227Z,25.08
2022-08-03T21:06:27.878Z,24.99
2022-08-03T21:09:04.089Z,24.93
2022-08-03T21:11:41.744Z,24.89
2022-08-03T21:14:37.703Z,24.82
2022-08-03T21:17:14.027Z,24.74
2022-08-03T21:19:51.960Z,24.68
2022-08-03T21:22:23.007Z,24.61
2022-08-03T21:24:54.343Z,24.55
2022-08-03T21:27:24.769Z,24.45
2022-08-03T21:29:53.240Z,24.42
2022-08-03T21:32:32.887Z,24.38
2022-08-03T21:35:01.367Z,24.28
2022-08-03T21:37:28.884Z,24.21
2022-08-03T21:39:56.447Z,24.16
2022-08-03T21:42:26.673Z,24.09
2022-08-03T21:44:54.209Z,24.04
2022-08-03T21:47:22.760Z,23.98
2022-08-03T21:50:08.584Z,23.93
2022-08-03T21:52:42.040Z,23.86
2022-08-03T21:55:20.642Z,23.80
2022-08-03T21:57:52.623Z,23.76
2022-08-03T22:00:23.093Z,23.70
2022-08-03T22:02:56.089Z,23.65
2022-08-03T22:05:42.816Z,23.59
2022-08-03T22:08:12.859Z,23.53
2022-08-03T22:10:40.546Z,23.49
2022-08-03T22:13:07.367Z,23.42
2022-08-03T22:15:34.363Z,23.40
2022-08-03T22:18:03.788Z,23.34
2022-08-03T22:20:31.085Z,23.29
2022-08-03T22:23:04.139Z,23.22
2022-08-03T22:25:34.128Z,23.16
2022-08-03T22:28:04.233Z,23.14
2022-08-03T22:30:33.330Z,23.12
2022-08-03T22:33:02.166Z,23.06
2022-08-03T22:35:32.083Z,23.01
2022-08-03T22:38:11.299Z,22.97
2022-08-03T22:40:39.092Z,22.93
2022-08-03T22:43:07.469Z,22.87
2022-08-03T22:46:07.694Z,22.83
2022-08-03T22:48:26.782Z,22.76
2022-08-03T22:50:53.940Z,22.72
2022-08-03T22:53:21.941Z,22.69
2022-08-03T22:55:49.801Z,22.63
2022-08-03T22:58:16.717Z,22.59
2022-08-03T23:00:54.021Z,22.54
2022-08-03T23:04:01.063Z,22.48
2022-08-03T23:06:15.332Z,22.42
2022-08-03T23:08:46.606Z,22.37
2022-08-03T23:11:15.294Z,22.33
2022-08-03T23:13:46.790Z,22.28
2022-08-03T23:16:14.820Z,22.26
2022-08-03T23:18:42.670Z,22.21
2022-08-03T23:21:11.653Z,22.18
2022-08-03T23:23:44.584Z,22.13
2022-08-03T23:26:13.339Z,22.09
2022-08-03T23:28:41.561Z,22.05
2022-08-03T23:31:08.903Z,22.01
2022-08-03T23:33:39.092Z,21.97
2022-08-03T23:36:17.301Z,21.93
2022-08-03T23:38:54.111Z,21.88
2022-08-03T23:41:22.202Z,21.83
2022-08-03T23:43:51.757Z,21.80
2022-08-03T23:46:22.607Z,21.76
2022-08-03T23:48:51.007Z,21.72
2022-08-03T23:51:28.709Z,21.69
2022-08-03T23:54:03.352Z,21.65
2022-08-03T23:56:51.742Z,21.60
2022-08-03T23:59:29.919Z,21.53
